Time;durP1;ratioP1;P1;durP2;ratioP2;P2;SDS_P1;SDS_P2;PMS_P1;PMS_P2;Temp;Humidity;BMP_temperature;BMP_pressure;BME280_temperature;BME280_humidity;BME280_pressure;Samples;Min_cycle;Max_cycle;Signal;HPM_P1;HPM_P2
2024/04/23 00:01:56;;;;;;;2.63;2.33;;;;;;;;;;5481298;26;20519;-69
2024/04/23 00:04:27;;;;;;;3.15;2.10;;;;;;;;;;5472694;26;20066;-68
2024/04/23 00:06:58;;;;;;;3.13;2.33;;;;;;;;;;5466565;26;20352;-68
2024/04/23 00:09:29;;;;;;;2.47;1.85;;;;;;;;;;5479065;26;20484;-68
2024/04/23 00:11:56;;;;;;;2.65;2.28;;;;;;;;;;5478791;26;20077;-69
2024/04/23 00:14:28;;;;;;;3.97;2.25;;;;;;;;;;5479158;26;20028;-69
2024/04/23 00:16:59;;;;;;;4.55;2.60;;;;;;;;;;5472065;26;20014;-68
2024/04/23 00:19:29;;;;;;;2.55;2.05;;;;;;;;;;5466932;26;20014;-69
2024/04/23 00:21:59;;;;;;;2.90;2.17;;;;;;;;;;5488437;26;20392;-69
2024/04/23 00:24:29;;;;;;;2.83;2.30;;;;;;;;;;5483129;26;20017;-69
2024/04/23 00:26:57;;;;;;;2.40;2.20;;;;;;;;;;5480541;26;20014;-69
2024/04/23 00:29:28;;;;;;;2.17;1.98;;;;;;;;;;5478828;26;20003;-69
2024/04/23 00:31:55;;;;;;;3.08;2.20;;;;;;;;;;5488251;26;19998;-69
2024/04/23 00:34:26;;;;;;;3.15;2.40;;;;;;;;;;5489424;26;20314;-69
2024/04/23 00:36:54;;;;;;;2.67;2.10;;;;;;;;;;5463365;26;20007;-69
2024/04/23 00:39:27;;;;;;;2.75;2.10;;;;;;;;;;5481010;26;20077;-68
2024/04/23 00:41:55;;;;;;;2.92;2.45;;;;;;;;;;5482495;26;19999;-68
2024/04/23 00:44:25;;;;;;;2.83;2.10;;;;;;;;;;5474766;26;20436;-68
2024/04/23 00:46:53;;;;;;;2.90;2.33;;;;;;;;;;5476940;26;20009;-68
2024/04/23 00:49:24;;;;;;;3.05;2.35;;;;;;;;;;5486895;26;20072;-68
2024/04/23 00:51:51;;;;;;;3.50;2.33;;;;;;;;;;5479303;26;20681;-69
2024/04/23 00:54:22;;;;;;;4.05;2.33;;;;;;;;;;5474473;26;20014;-69
2024/04/23 00:56:54;;;;;;;3.72;2.38;;;;;;;;;;5466423;26;20626;-71
2024/04/23 00:59:26;;;;;;;3.58;2.65;;;;;;;;;;5476901;26;20001;-69
2024/04/23 01:01:55;;;;;;;2.53;2.33;;;;;;;;;;5473894;26;20011;-71
2024/04/23 01:04:26;;;;;;;2.95;2.25;;;;;;;;;;5483218;26;20051;-70
2024/04/23 01:06:53;;;;;;;5.07;2.60;;;;;;;;;;5464193;26;20010;-71
2024/04/23 01:09:24;;;;;;;3.70;2.40;;;;;;;;;;5465874;26;20103;-69
2024/04/23 01:11:54;;;;;;;4.28;2.65;;;;;;;;;;5472651;26;20006;-68
2024/04/23 01:14:24;;;;;;;3.78;2.55;;;;;;;;;;5495422;26;20001;-69
2024/04/23 01:16:52;;;;;;;3.60;2.40;;;;;;;;;;5478010;26;20467;-69
2024/04/23 01:19:28;;;;;;;4.28;2.75;;;;;;;;;;5482803;26;20014;-69
2024/04/23 01:22:00;;;;;;;5.30;2.83;;;;;;;;;;5482723;26;20002;-68
2024/04/23 01:24:35;;;;;;;3.92;2.80;;;;;;;;;;5485932;26;20003;-69
2024/04/23 01:27:05;;;;;;;5.65;2.60;;;;;;;;;;5472486;26;19998;-68
2024/04/23 01:29:37;;;;;;;4.07;2.58;;;;;;;;;;5485826;26;19998;-68
2024/04/23 01:32:05;;;;;;;3.00;2.47;;;;;;;;;;5485122;26;20071;-70
2024/04/23 01:34:36;;;;;;;3.38;2.72;;;;;;;;;;5483501;26;20006;-68
2024/04/23 01:37:05;;;;;;;4.50;2.65;;;;;;;;;;5484512;26;20009;-67
2024/04/23 01:39:35;;;;;;;3.58;2.78;;;;;;;;;;5484882;26;20007;-69
2024/04/23 01:42:05;;;;;;;3.95;2.67;;;;;;;;;;5481510;26;20370;-68
2024/04/23 01:44:36;;;;;;;4.22;2.63;;;;;;;;;;5480932;26;20002;-68
2024/04/23 01:47:03;;;;;;;3.47;3.05;;;;;;;;;;5477830;26;20594;-69
2024/04/23 01:49:34;;;;;;;3.40;2.80;;;;;;;;;;5475878;26;20025;-68
2024/04/23 01:52:01;;;;;;;4.13;2.75;;;;;;;;;;5464391;26;20070;-68
2024/04/23 01:54:32;;;;;;;5.57;3.28;;;;;;;;;;5457302;26;20336;-68
2024/04/23 01:57:01;;;;;;;3.58;2.53;;;;;;;;;;5477464;26;20523;-68
2024/04/23 01:59:34;;;;;;;4.38;2.65;;;;;;;;;;5482158;26;20017;-68
2024/04/23 02:02:01;;;;;;;4.40;2.90;;;;;;;;;;5477503;26;20003;-68
2024/04/23 02:04:32;;;;;;;3.85;2.78;;;;;;;;;;5466475;26;20003;-68
2024/04/23 02:06:59;;;;;;;4.88;2.90;;;;;;;;;;5489978;26;20359;-68
2024/04/23 02:09:30;;;;;;;6.03;3.10;;;;;;;;;;5471009;26;20003;-68
2024/04/23 02:11:59;;;;;;;4.05;2.72;;;;;;;;;;5471237;26;20008;-67
2024/04/23 02:14:29;;;;;;;3.95;2.75;;;;;;;;;;5458717;26;20015;-67
2024/04/23 02:16:59;;;;;;;3.45;2.75;;;;;;;;;;5471672;26;21383;-68
2024/04/23 02:19:30;;;;;;;3.85;2.92;;;;;;;;;;5472913;26;20006;-68
2024/04/23 02:21:58;;;;;;;4.82;2.97;;;;;;;;;;5480757;26;20017;-67
2024/04/23 02:24:28;;;;;;;4.50;2.78;;;;;;;;;;5482880;26;20003;-67
2024/04/23 02:26:56;;;;;;;3.58;2.75;;;;;;;;;;5488353;26;19998;-67
2024/04/23 02:29:26;;;;;;;3.33;2.47;;;;;;;;;;5483272;26;20095;-67
2024/04/23 02:31:53;;;;;;;3.95;2.85;;;;;;;;;;5485172;26;20002;-68
2024/04/23 02:34:26;;;;;;;5.38;2.90;;;;;;;;;;5486192;26;19998;-67
2024/04/23 02:36:54;;;;;;;6.00;3.05;;;;;;;;;;5471420;26;20006;-68
2024/04/23 02:39:24;;;;;;;4.45;3.03;;;;;;;;;;5492903;26;20006;-67
2024/04/23 02:41:52;;;;;;;4.22;2.97;;;;;;;;;;5489118;26;19997;-68
2024/04/23 02:44:22;;;;;;;4.32;3.05;;;;;;;;;;5475804;26;20009;-68
2024/04/23 02:46:50;;;;;;;6.18;2.85;;;;;;;;;;5481625;26;19998;-68
2024/04/23 02:49:20;;;;;;;6.03;3.28;;;;;;;;;;5482069;26;20020;-68
2024/04/23 02:51:51;;;;;;;4.88;3.08;;;;;;;;;;5489522;26;20316;-68
2024/04/23 02:54:21;;;;;;;6.03;3.58;;;;;;;;;;5476979;26;20011;-68
2024/04/23 02:56:50;;;;;;;4.55;3.08;;;;;;;;;;5471496;26;20005;-69
2024/04/23 02:59:21;;;;;;;6.45;3.13;;;;;;;;;;5459085;26;20030;-68
2024/04/23 03:01:49;;;;;;;5.47;3.35;;;;;;;;;;5476534;26;20009;-68
2024/04/23 03:04:19;;;;;;;4.90;3.30;;;;;;;;;;5466711;26;20013;-70
2024/04/23 03:06:46;;;;;;;4.20;2.95;;;;;;;;;;5449465;26;20079;-69
2024/04/23 03:09:19;;;;;;;4.13;3.17;;;;;;;;;;5475678;26;20006;-69
2024/04/23 03:11:50;;;;;;;3.92;2.67;;;;;;;;;;5480736;26;19998;-68
2024/04/23 03:14:21;;;;;;;5.30;3.10;;;;;;;;;;5478491;26;20006;-68
2024/04/23 03:16:48;;;;;;;6.03;2.97;;;;;;;;;;5476514;26;20034;-69
2024/04/23 03:19:18;;;;;;;4.80;2.60;;;;;;;;;;5474541;26;20082;-68
2024/04/23 03:21:49;;;;;;;4.78;3.10;;;;;;;;;;5480794;26;20001;-68
2024/04/23 03:24:22;;;;;;;4.65;3.10;;;;;;;;;;5483392;26;20006;-67
2024/04/23 03:26:50;;;;;;;5.10;3.00;;;;;;;;;;5445794;26;19998;-68
2024/04/23 03:29:20;;;;;;;4.88;3.15;;;;;;;;;;5431181;26;20004;-69
2024/04/23 03:31:58;;;;;;;6.07;3.92;;;;;;;;;;5433082;26;20317;-69
2024/04/23 03:34:29;;;;;;;4.72;3.47;;;;;;;;;;5445179;26;20003;-68
2024/04/23 03:36:59;;;;;;;5.20;3.20;;;;;;;;;;5454210;26;20003;-68
2024/04/23 03:39:32;;;;;;;4.25;2.83;;;;;;;;;;5445417;26;20017;-68
2024/04/23 03:42:03;;;;;;;5.22;3.55;;;;;;;;;;5439724;26;20053;-68
2024/04/23 03:44:33;;;;;;;4.13;3.10;;;;;;;;;;5444688;26;19998;-68
2024/04/23 03:47:08;;;;;;;4.85;3.20;;;;;;;;;;5443184;26;20375;-67
2024/04/23 03:49:38;;;;;;;5.35;3.20;;;;;;;;;;5447474;26;20033;-68
2024/04/23 03:52:06;;;;;;;5.63;3.50;;;;;;;;;;5448505;26;20014;-68
2024/04/23 03:54:40;;;;;;;6.20;3.90;;;;;;;;;;5443777;26;20003;-68
2024/04/23 03:57:08;;;;;;;5.35;3.58;;;;;;;;;;5453924;26;20442;-69
2024/04/23 03:59:38;;;;;;;3.90;3.05;;;;;;;;;;5454215;26;20017;-69
2024/04/23 04:07:40;;;;;;;7.93;3.42;;;;;;;;;;5381028;26;20014;-68
2024/04/23 04:10:12;;;;;;;7.43;3.42;;;;;;;;;;5445504;26;20019;-68
2024/04/23 04:12:43;;;;;;;5.63;3.53;;;;;;;;;;5447280;26;20006;-68
2024/04/23 04:15:13;;;;;;;4.60;3.20;;;;;;;;;;5461318;26;20019;-68
2024/04/23 04:17:40;;;;;;;4.80;3.35;;;;;;;;;;5451654;26;20006;-68
2024/04/23 04:20:11;;;;;;;4.80;3.22;;;;;;;;;;5445958;26;20003;-68
2024/04/23 04:22:39;;;;;;;5.03;3.47;;;;;;;;;;5442491;26;20011;-68
2024/04/23 04:25:12;;;;;;;6.00;3.58;;;;;;;;;;5438865;26;20006;-68
2024/04/23 04:27:40;;;;;;;5.57;3.53;;;;;;;;;;5445170;26;19999;-69
2024/04/23 04:30:11;;;;;;;4.50;3.15;;;;;;;;;;5421463;26;20513;-67
2024/04/23 04:32:39;;;;;;;6.38;3.95;;;;;;;;;;5436333;26;20003;-69
2024/04/23 04:35:09;;;;;;;4.97;3.50;;;;;;;;;;5439075;26;20017;-68
2024/04/23 04:37:37;;;;;;;10.43;3.97;;;;;;;;;;5423540;26;19995;-68
2024/04/23 04:40:07;;;;;;;6.18;3.55;;;;;;;;;;5437636;26;20419;-69
2024/04/23 04:42:38;;;;;;;4.93;3.42;;;;;;;;;;5431985;26;20003;-68
2024/04/23 04:45:08;;;;;;;5.28;3.40;;;;;;;;;;5430922;26;20214;-69
2024/04/23 04:47:38;;;;;;;5.57;3.63;;;;;;;;;;5434526;26;20003;-67
2024/04/23 04:50:06;;;;;;;6.75;3.97;;;;;;;;;;5434390;26;20368;-63
2024/04/23 04:52:36;;;;;;;5.43;3.67;;;;;;;;;;5442974;26;20030;-63
2024/04/23 04:55:04;;;;;;;5.45;3.75;;;;;;;;;;5425473;26;20018;-63
2024/04/23 04:57:34;;;;;;;5.45;3.53;;;;;;;;;;5434997;26;20079;-62
2024/04/23 05:00:04;;;;;;;4.60;3.00;;;;;;;;;;5427599;26;20007;-62
2024/04/23 05:02:35;;;;;;;6.43;3.58;;;;;;;;;;5434517;26;20052;-63
2024/04/23 05:05:02;;;;;;;5.13;3.08;;;;;;;;;;5425346;26;20033;-63
2024/04/23 05:07:32;;;;;;;4.95;3.30;;;;;;;;;;5443330;26;20003;-62
2024/04/23 05:10:00;;;;;;;8.23;3.42;;;;;;;;;;5453638;26;20003;-62
2024/04/23 05:12:30;;;;;;;5.65;3.85;;;;;;;;;;5434649;26;20071;-62
2024/04/23 05:14:58;;;;;;;5.38;3.50;;;;;;;;;;5414241;26;20004;-63
2024/04/23 05:17:31;;;;;;;5.85;3.42;;;;;;;;;;5433672;26;20573;-63
2024/04/23 05:19:59;;;;;;;5.82;3.38;;;;;;;;;;5424120;26;20003;-62
2024/04/23 05:22:29;;;;;;;5.57;3.45;;;;;;;;;;5425068;26;20150;-63
2024/04/23 05:24:57;;;;;;;7.28;4.22;;;;;;;;;;5423073;26;20080;-63
2024/04/23 05:27:27;;;;;;;8.27;3.53;;;;;;;;;;5435587;26;20340;-64
2024/04/23 05:29:55;;;;;;;4.28;3.42;;;;;;;;;;5445285;26;20316;-62
2024/04/23 05:35:15;;;;;;;5.82;3.78;;;;;;;;;;5446710;26;19999;-63
2024/04/23 05:37:45;;;;;;;7.65;4.25;;;;;;;;;;5426172;26;20444;-65
2024/04/23 05:40:16;;;;;;;5.00;3.42;;;;;;;;;;5444429;26;20493;-64
2024/04/23 05:42:46;;;;;;;5.10;3.67;;;;;;;;;;5448100;26;20017;-65
2024/04/23 05:45:15;;;;;;;5.88;3.25;;;;;;;;;;5428460;26;20011;-64
2024/04/23 05:48:04;;;;;;;6.78;3.63;;;;;;;;;;5447735;26;20111;-64
2024/04/23 05:50:52;;;;;;;6.90;4.00;;;;;;;;;;5428649;26;20398;-64
2024/04/23 05:53:39;;;;;;;5.88;3.80;;;;;;;;;;5447555;26;20013;-64
2024/04/23 05:56:12;;;;;;;4.97;3.70;;;;;;;;;;5429539;26;20004;-65
2024/04/23 05:58:39;;;;;;;5.47;3.38;;;;;;;;;;5447836;26;19998;-65
2024/04/23 06:01:09;;;;;;;4.72;3.30;;;;;;;;;;5430188;26;20014;-65
2024/04/23 06:03:37;;;;;;;5.22;3.85;;;;;;;;;;5434298;26;20475;-64
2024/04/23 06:06:07;;;;;;;7.03;4.35;;;;;;;;;;5437951;26;20003;-64
2024/04/23 06:08:35;;;;;;;6.65;3.90;;;;;;;;;;5444264;26;20448;-64
2024/04/23 06:11:05;;;;;;;7.47;3.60;;;;;;;;;;5441102;26;20471;-65
2024/04/23 06:13:36;;;;;;;5.50;3.75;;;;;;;;;;5446361;26;20071;-65
2024/04/23 06:16:11;;;;;;;6.05;3.58;;;;;;;;;;5446606;26;20074;-64
2024/04/23 06:18:38;;;;;;;8.70;3.78;;;;;;;;;;5432867;26;20094;-64
2024/04/23 06:21:13;;;;;;;4.93;3.25;;;;;;;;;;5445921;26;20018;-65
2024/04/23 06:23:40;;;;;;;8.65;4.15;;;;;;;;;;5460540;26;20071;-65
2024/04/23 06:26:11;;;;;;;6.68;3.60;;;;;;;;;;5483634;26;20390;-65
2024/04/23 06:28:42;;;;;;;6.40;3.83;;;;;;;;;;5482696;26;20010;-64
2024/04/23 06:31:13;;;;;;;6.20;3.75;;;;;;;;;;5495603;26;20490;-64
2024/04/23 06:33:40;;;;;;;6.00;3.83;;;;;;;;;;5489419;26;20002;-64
2024/04/23 06:36:11;;;;;;;6.15;3.80;;;;;;;;;;5505285;26;20016;-65
2024/04/23 06:38:38;;;;;;;6.32;3.72;;;;;;;;;;5498349;26;20005;-65
2024/04/23 06:41:09;;;;;;;6.00;3.80;;;;;;;;;;5475310;26;20444;-65
2024/04/23 06:43:36;;;;;;;4.63;3.78;;;;;;;;;;5483744;26;20354;-64
2024/04/23 06:46:09;;;;;;;6.68;3.83;;;;;;;;;;5496022;26;20129;-65
2024/04/23 06:48:39;;;;;;;5.80;3.75;;;;;;;;;;5496387;26;20448;-64
2024/04/23 06:51:09;;;;;;;5.68;3.53;;;;;;;;;;5477008;26;20405;-65
2024/04/23 06:53:37;;;;;;;6.32;3.83;;;;;;;;;;5485142;26;20099;-65
2024/04/23 06:56:07;;;;;;;4.30;3.20;;;;;;;;;;5481023;26;20002;-64
2024/04/23 06:58:35;;;;;;;5.80;3.90;;;;;;;;;;5486001;26;19998;-65
2024/04/23 07:01:05;;;;;;;5.22;3.70;;;;;;;;;;5473666;26;20051;-64
2024/04/23 07:03:35;;;;;;;6.72;4.00;;;;;;;;;;5483528;26;20053;-64
2024/04/23 07:06:07;;;;;;;5.65;3.50;;;;;;;;;;5483840;26;20006;-65
2024/04/23 07:08:34;;;;;;;6.70;3.78;;;;;;;;;;5484487;26;20269;-65
2024/04/23 07:11:04;;;;;;;7.10;4.00;;;;;;;;;;5472342;26;20416;-65
2024/04/23 07:13:32;;;;;;;4.88;3.45;;;;;;;;;;5482996;26;20006;-65
2024/04/23 07:16:03;;;;;;;5.00;3.10;;;;;;;;;;5482529;26;20002;-63
2024/04/23 07:18:31;;;;;;;6.03;3.80;;;;;;;;;;5483213;26;19998;-65
2024/04/23 07:21:09;;;;;;;4.93;3.58;;;;;;;;;;5480335;26;20473;-65
2024/04/23 07:23:36;;;;;;;6.63;3.55;;;;;;;;;;5483382;26;20348;-64
2024/04/23 07:26:07;;;;;;;4.97;3.65;;;;;;;;;;5479099;26;20499;-65
2024/04/23 07:28:35;;;;;;;4.93;3.50;;;;;;;;;;5483465;26;20002;-65
2024/04/23 07:31:05;;;;;;;5.38;3.63;;;;;;;;;;5483567;26;20012;-64
2024/04/23 07:33:32;;;;;;;4.95;3.22;;;;;;;;;;5483783;26;20125;-64
2024/04/23 07:36:03;;;;;;;5.68;3.78;;;;;;;;;;5470987;26;20336;-64
2024/04/23 07:38:33;;;;;;;5.10;3.50;;;;;;;;;;5468853;26;20009;-64
2024/04/23 07:41:03;;;;;;;4.60;3.65;;;;;;;;;;5462834;26;20332;-64
2024/04/23 07:43:31;;;;;;;6.55;3.45;;;;;;;;;;5483379;26;20331;-65
2024/04/23 07:46:01;;;;;;;5.43;3.90;;;;;;;;;;5482937;26;20002;-65
2024/04/23 07:48:28;;;;;;;5.22;3.63;;;;;;;;;;5481437;26;19994;-65
2024/04/23 07:51:00;;;;;;;6.50;3.75;;;;;;;;;;5482179;26;20078;-65
2024/04/23 07:53:31;;;;;;;5.25;3.55;;;;;;;;;;5485685;26;20335;-64
2024/04/23 07:56:04;;;;;;;5.47;3.53;;;;;;;;;;5473648;26;20459;-65
2024/04/23 07:58:32;;;;;;;5.65;3.72;;;;;;;;;;5481317;26;19998;-64
2024/04/23 08:01:02;;;;;;;5.40;3.72;;;;;;;;;;5473651;26;20005;-65
2024/04/23 08:03:30;;;;;;;5.88;4.00;;;;;;;;;;5481402;26;20051;-64
2024/04/23 08:06:02;;;;;;;4.90;3.72;;;;;;;;;;5480573;26;20020;-64
2024/04/23 08:08:29;;;;;;;5.28;3.88;;;;;;;;;;5487564;26;20013;-64
2024/04/23 08:11:01;;;;;;;4.97;3.65;;;;;;;;;;5472128;26;20397;-64
2024/04/23 08:13:31;;;;;;;5.70;3.80;;;;;;;;;;5509113;26;20008;-64
2024/04/23 08:16:01;;;;;;;5.13;3.60;;;;;;;;;;5494440;26;20032;-64
2024/04/23 08:18:29;;;;;;;9.73;4.45;;;;;;;;;;5472502;26;20014;-65
2024/04/23 08:20:59;;;;;;;5.40;3.95;;;;;;;;;;5483298;26;20017;-65
2024/04/23 08:23:27;;;;;;;5.75;3.72;;;;;;;;;;5482868;26;20002;-65
2024/04/23 08:25:57;;;;;;;7.00;3.92;;;;;;;;;;5489619;26;20081;-65
2024/04/23 08:28:24;;;;;;;5.50;3.60;;;;;;;;;;5489993;26;20010;-64
2024/04/23 08:30:57;;;;;;;5.57;3.90;;;;;;;;;;5486207;26;20083;-65
2024/04/23 08:33:25;;;;;;;6.20;4.22;;;;;;;;;;5512109;26;20013;-65
2024/04/23 08:35:57;;;;;;;5.03;4.07;;;;;;;;;;5473695;26;20530;-65
2024/04/23 08:38:25;;;;;;;5.38;3.92;;;;;;;;;;5470495;26;19998;-65
2024/04/23 08:40:57;;;;;;;6.50;4.07;;;;;;;;;;5504951;26;20959;-65
2024/04/23 08:43:30;;;;;;;5.72;3.60;;;;;;;;;;5507899;26;20489;-65
2024/04/23 08:46:03;;;;;;;4.63;3.60;;;;;;;;;;5472199;26;20035;-66
2024/04/23 08:48:31;;;;;;;4.60;3.33;;;;;;;;;;5476583;26;20466;-66
2024/04/23 08:51:03;;;;;;;5.13;3.65;;;;;;;;;;5482263;26;20012;-65
2024/04/23 08:53:32;;;;;;;5.15;3.25;;;;;;;;;;5478654;26;20072;-64
2024/04/23 08:56:12;;;;;;;5.50;4.00;;;;;;;;;;5479075;26;20130;-64
2024/04/23 08:58:42;;;;;;;5.03;3.60;;;;;;;;;;5480348;26;20012;-65
2024/04/23 09:01:16;;;;;;;6.53;3.85;;;;;;;;;;5476667;26;20465;-64
2024/04/23 09:03:45;;;;;;;5.40;3.55;;;;;;;;;;5484476;26;20012;-64
2024/04/23 09:06:15;;;;;;;5.78;3.60;;;;;;;;;;5482420;26;20014;-65
2024/04/23 09:08:44;;;;;;;5.90;3.70;;;;;;;;;;5464112;26;19999;-65
2024/04/23 09:11:14;;;;;;;4.57;3.60;;;;;;;;;;5480360;26;20010;-65
2024/04/23 09:13:42;;;;;;;6.80;3.80;;;;;;;;;;5470898;26;20009;-65
2024/04/23 09:16:12;;;;;;;5.47;3.95;;;;;;;;;;5486898;26;20006;-65
2024/04/23 09:18:43;;;;;;;5.85;4.18;;;;;;;;;;5483717;26;20351;-64
2024/04/23 09:21:13;;;;;;;6.03;4.07;;;;;;;;;;5498145;26;20367;-64
2024/04/23 09:23:42;;;;;;;5.90;3.88;;;;;;;;;;5478373;26;20072;-64
2024/04/23 09:26:13;;;;;;;5.47;4.25;;;;;;;;;;5482368;26;20018;-65
2024/04/23 09:28:41;;;;;;;4.60;3.63;;;;;;;;;;5486108;26;20071;-64
2024/04/23 09:31:15;;;;;;;5.40;3.95;;;;;;;;;;5509070;26;20014;-65
2024/04/23 09:33:54;;;;;;;4.57;3.57;;;;;;;;;;5498135;26;20006;-64
2024/04/23 09:36:25;;;;;;;5.03;3.40;;;;;;;;;;5481818;26;20005;-65
2024/04/23 09:38:53;;;;;;;5.50;3.55;;;;;;;;;;5486669;26;20009;-65
2024/04/23 09:41:24;;;;;;;7.53;3.70;;;;;;;;;;5482487;26;20082;-64
2024/04/23 09:43:52;;;;;;;5.22;3.67;;;;;;;;;;5489815;26;19998;-65
2024/04/23 09:46:23;;;;;;;5.15;3.35;;;;;;;;;;5500830;26;20081;-64
2024/04/23 09:48:51;;;;;;;4.32;3.60;;;;;;;;;;5488719;26;20002;-65
2024/04/23 09:51:24;;;;;;;8.32;4.30;;;;;;;;;;5480506;26;20006;-65
2024/04/23 09:53:53;;;;;;;7.40;4.35;;;;;;;;;;5486042;26;19994;-65
2024/04/23 09:56:23;;;;;;;4.97;3.80;;;;;;;;;;5481808;26;20075;-69
2024/04/23 09:58:51;;;;;;;5.60;3.85;;;;;;;;;;5483532;26;20085;-69
2024/04/23 10:01:23;;;;;;;6.40;3.95;;;;;;;;;;5474299;26;20017;-69
2024/04/23 10:03:56;;;;;;;6.35;4.10;;;;;;;;;;5481778;26;20002;-68
2024/04/23 10:06:27;;;;;;;5.28;3.97;;;;;;;;;;5478146;26;20035;-69
2024/04/23 10:09:00;;;;;;;5.75;4.38;;;;;;;;;;5482303;26;20018;-68
2024/04/23 10:11:35;;;;;;;5.63;4.15;;;;;;;;;;5469199;26;20403;-68
2024/04/23 10:14:06;;;;;;;6.43;4.45;;;;;;;;;;5480180;26;20002;-69
2024/04/23 10:16:39;;;;;;;4.38;3.60;;;;;;;;;;5476067;26;20013;-69
2024/04/23 10:19:08;;;;;;;6.82;4.00;;;;;;;;;;5475860;26;20079;-68
2024/04/23 10:21:42;;;;;;;5.13;3.92;;;;;;;;;;5483460;26;20002;-69
2024/04/23 10:24:10;;;;;;;5.00;3.95;;;;;;;;;;5482253;26;19994;-69
2024/04/23 10:26:42;;;;;;;5.50;4.35;;;;;;;;;;5481793;26;20002;-68
2024/04/23 10:29:11;;;;;;;7.72;4.40;;;;;;;;;;5476996;26;20089;-68
2024/04/23 10:31:41;;;;;;;7.70;4.30;;;;;;;;;;5471503;26;20466;-69
2024/04/23 10:34:09;;;;;;;5.35;4.05;;;;;;;;;;5453427;26;20048;-70
2024/04/23 10:36:42;;;;;;;6.10;4.55;;;;;;;;;;5465457;26;20584;-68
2024/04/23 10:39:12;;;;;;;6.13;3.97;;;;;;;;;;5479966;26;19998;-67
2024/04/23 10:41:43;;;;;;;4.63;3.75;;;;;;;;;;5481922;26;20448;-67
2024/04/23 10:44:11;;;;;;;5.57;3.90;;;;;;;;;;5480519;26;20002;-68
2024/04/23 10:46:41;;;;;;;7.78;4.45;;;;;;;;;;5477761;26;19998;-67
2024/04/23 10:49:15;;;;;;;6.63;4.35;;;;;;;;;;5473398;26;20334;-67
2024/04/23 10:51:50;;;;;;;5.50;4.20;;;;;;;;;;5484528;26;20359;-68
2024/04/23 10:54:20;;;;;;;5.13;3.67;;;;;;;;;;5469376;26;19998;-67
2024/04/23 10:56:58;;;;;;;6.03;4.13;;;;;;;;;;5482411;26;20002;-68
2024/04/23 10:59:30;;;;;;;5.32;3.97;;;;;;;;;;5483827;26;20320;-68
2024/04/23 11:02:01;;;;;;;5.63;4.10;;;;;;;;;;5465658;26;20025;-67
2024/04/23 11:04:29;;;;;;;6.22;4.07;;;;;;;;;;5481887;26;20031;-67
2024/04/23 11:07:06;;;;;;;5.35;3.83;;;;;;;;;;5477373;26;20013;-68
2024/04/23 11:09:34;;;;;;;4.35;3.38;;;;;;;;;;5474300;26;20009;-68
2024/04/23 11:12:04;;;;;;;6.45;4.20;;;;;;;;;;5484048;26;20337;-67
2024/04/23 11:14:34;;;;;;;4.78;3.55;;;;;;;;;;5484282;26;20006;-67
2024/04/23 11:17:05;;;;;;;4.82;3.90;;;;;;;;;;5483404;26;20017;-68
2024/04/23 11:19:37;;;;;;;5.22;3.80;;;;;;;;;;5480600;26;20047;-68
2024/04/23 11:22:13;;;;;;;5.05;3.40;;;;;;;;;;5483520;26;20361;-68
2024/04/23 11:24:43;;;;;;;5.70;4.05;;;;;;;;;;5481107;26;20362;-67
2024/04/23 11:27:13;;;;;;;4.32;3.70;;;;;;;;;;5475811;26;20030;-66
2024/04/23 11:29:41;;;;;;;7.47;3.95;;;;;;;;;;5476478;26;20453;-69
2024/04/23 11:32:12;;;;;;;5.60;3.88;;;;;;;;;;5467588;26;20491;-68
2024/04/23 11:34:41;;;;;;;4.85;3.38;;;;;;;;;;5481549;26;20021;-67
2024/04/23 11:37:14;;;;;;;5.47;3.22;;;;;;;;;;5471061;26;20002;-66
2024/04/23 11:39:41;;;;;;;7.38;3.80;;;;;;;;;;5469370;26;20074;-67
2024/04/23 11:42:12;;;;;;;4.82;3.45;;;;;;;;;;5462799;26;20002;-67
2024/04/23 11:44:39;;;;;;;5.28;3.35;;;;;;;;;;5469662;26;20455;-67
2024/04/23 11:47:13;;;;;;;5.78;3.83;;;;;;;;;;5471959;26;20450;-67
2024/04/23 11:49:41;;;;;;;5.25;3.33;;;;;;;;;;5482721;26;20010;-66
2024/04/23 11:52:14;;;;;;;4.13;3.08;;;;;;;;;;5474608;26;20079;-65
2024/04/23 11:54:41;;;;;;;5.25;3.72;;;;;;;;;;5478628;26;20409;-67
2024/04/23 11:57:12;;;;;;;6.53;3.90;;;;;;;;;;5481108;26;20572;-68
2024/04/23 11:59:41;;;;;;;7.03;3.95;;;;;;;;;;5465372;26;20575;-66
2024/04/23 12:02:12;;;;;;;6.15;3.70;;;;;;;;;;5467325;26;20508;-66
2024/04/23 12:04:40;;;;;;;4.88;3.40;;;;;;;;;;5468783;26;20013;-67
2024/04/23 12:07:15;;;;;;;4.47;3.85;;;;;;;;;;5472506;26;20333;-68
2024/04/23 12:09:42;;;;;;;5.97;3.70;;;;;;;;;;5462640;26;20002;-67
2024/04/23 12:12:12;;;;;;;5.63;4.05;;;;;;;;;;5480674;26;20056;-68
2024/04/23 12:14:40;;;;;;;5.50;3.80;;;;;;;;;;5478898;26;20044;-69
2024/04/23 12:17:10;;;;;;;5.18;3.90;;;;;;;;;;5478743;26;20013;-68
2024/04/23 12:19:38;;;;;;;6.15;4.40;;;;;;;;;;5475171;26;20093;-71
2024/04/23 12:22:20;;;;;;;5.45;4.05;;;;;;;;;;5478933;26;20021;-67
2024/04/23 12:24:49;;;;;;;5.05;4.13;;;;;;;;;;5470768;26;20011;-67
2024/04/23 12:27:19;;;;;;;7.13;4.20;;;;;;;;;;5460543;26;20075;-73
2024/04/23 12:29:46;;;;;;;7.70;4.50;;;;;;;;;;5478354;26;20009;-68
2024/04/23 12:32:16;;;;;;;5.78;3.90;;;;;;;;;;5480864;26;20018;-66
2024/04/23 12:34:44;;;;;;;9.57;4.10;;;;;;;;;;5478951;26;20013;-67
2024/04/23 12:37:14;;;;;;;6.95;4.00;;;;;;;;;;5480871;26;20002;-66
2024/04/23 12:39:45;;;;;;;5.25;3.63;;;;;;;;;;5481025;26;20005;-66
2024/04/23 12:42:17;;;;;;;5.88;4.00;;;;;;;;;;5466440;26;20014;-69
2024/04/23 12:44:45;;;;;;;7.07;4.18;;;;;;;;;;5482461;26;20035;-67
2024/04/23 12:47:15;;;;;;;8.77;4.40;;;;;;;;;;5460143;26;20580;-66
2024/04/23 12:49:43;;;;;;;5.18;4.00;;;;;;;;;;5483648;26;20038;-68
2024/04/23 12:52:13;;;;;;;5.53;4.05;;;;;;;;;;5470419;26;20042;-66
2024/04/23 12:54:41;;;;;;;5.95;4.15;;;;;;;;;;5466347;26;20042;-68
2024/04/23 12:57:14;;;;;;;6.63;4.13;;;;;;;;;;5473611;26;20299;-67
2024/04/23 12:59:41;;;;;;;5.57;3.97;;;;;;;;;;5486374;26;19998;-66
2024/04/23 13:02:12;;;;;;;5.93;4.10;;;;;;;;;;5489590;26;20424;-66
2024/04/23 13:04:40;;;;;;;6.03;4.07;;;;;;;;;;5485725;26;20025;-66
2024/04/23 13:07:10;;;;;;;6.72;4.15;;;;;;;;;;5486929;26;20467;-66
2024/04/23 13:09:40;;;;;;;5.38;4.00;;;;;;;;;;5469025;26;20010;-67
2024/04/23 13:12:13;;;;;;;6.07;4.50;;;;;;;;;;5485733;26;20002;-66
2024/04/23 13:14:40;;;;;;;6.82;4.05;;;;;;;;;;5495082;26;20013;-66
2024/04/23 13:17:11;;;;;;;7.07;4.35;;;;;;;;;;5472913;26;20076;-68
2024/04/23 13:19:38;;;;;;;6.90;4.18;;;;;;;;;;5481911;26;19998;-69
2024/04/23 13:22:18;;;;;;;5.30;4.10;;;;;;;;;;5475871;26;20551;-67
2024/04/23 13:24:45;;;;;;;5.57;4.22;;;;;;;;;;5501098;26;20002;-66
2024/04/23 13:27:19;;;;;;;5.97;4.18;;;;;;;;;;5474876;26;20549;-68
2024/04/23 13:29:47;;;;;;;6.43;4.18;;;;;;;;;;5496949;26;20069;-69
2024/04/23 13:32:17;;;;;;;8.02;4.40;;;;;;;;;;5492605;26;20463;-68
2024/04/23 13:34:45;;;;;;;6.03;4.47;;;;;;;;;;5513357;26;19997;-67
2024/04/23 13:37:15;;;;;;;6.57;4.28;;;;;;;;;;5480195;26;20333;-66
2024/04/23 13:39:43;;;;;;;7.55;4.65;;;;;;;;;;5477410;26;19998;-67
2024/04/23 13:42:13;;;;;;;9.63;4.63;;;;;;;;;;5480157;26;20183;-68
2024/04/23 13:44:43;;;;;;;6.85;4.32;;;;;;;;;;5481086;26;20074;-69
2024/04/23 13:47:13;;;;;;;6.88;4.85;;;;;;;;;;5466733;26;20016;-68
2024/04/23 13:49:41;;;;;;;4.55;3.88;;;;;;;;;;5500766;26;20447;-66
2024/04/23 13:52:11;;;;;;;5.18;4.03;;;;;;;;;;5482465;26;20459;-66
2024/04/23 13:54:38;;;;;;;5.72;3.83;;;;;;;;;;5487505;26;20083;-68
2024/04/23 13:57:09;;;;;;;6.10;4.40;;;;;;;;;;5497254;26;20002;-67
2024/04/23 13:59:36;;;;;;;8.20;4.25;;;;;;;;;;5485329;26;20331;-67
2024/04/23 14:02:09;;;;;;;7.82;4.40;;;;;;;;;;5475699;26;20020;-67
2024/04/23 14:04:43;;;;;;;6.70;4.60;;;;;;;;;;5483654;26;19998;-67
2024/04/23 14:07:13;;;;;;;6.22;4.85;;;;;;;;;;5488675;26;20459;-69
2024/04/23 14:09:41;;;;;;;6.70;4.22;;;;;;;;;;5478619;26;19998;-68
2024/04/23 14:12:11;;;;;;;6.47;4.15;;;;;;;;;;5474929;26;19999;-68
2024/04/23 14:14:39;;;;;;;6.93;4.45;;;;;;;;;;5467942;26;20455;-66
2024/04/23 14:17:12;;;;;;;6.00;4.30;;;;;;;;;;5500923;26;20001;-68
2024/04/23 14:19:40;;;;;;;7.10;4.40;;;;;;;;;;5483613;26;20006;-67
2024/04/23 14:22:13;;;;;;;5.55;4.00;;;;;;;;;;5480869;26;20010;-68
2024/04/23 14:24:41;;;;;;;7.00;4.28;;;;;;;;;;5500984;26;20070;-67
2024/04/23 14:27:11;;;;;;;7.68;4.18;;;;;;;;;;5481245;26;20053;-66
2024/04/23 14:29:40;;;;;;;8.38;4.65;;;;;;;;;;5482578;26;20071;-67
2024/04/23 14:32:17;;;;;;;5.72;3.97;;;;;;;;;;5482466;26;20002;-68
2024/04/23 14:34:44;;;;;;;7.30;4.22;;;;;;;;;;5486502;26;20006;-68
2024/04/23 14:37:15;;;;;;;9.38;4.78;;;;;;;;;;5460890;26;20006;-67
2024/04/23 14:39:43;;;;;;;6.70;4.68;;;;;;;;;;5479123;26;20070;-67
2024/04/23 14:42:13;;;;;;;7.57;4.32;;;;;;;;;;5463877;26;20082;-69
2024/04/23 14:44:41;;;;;;;4.82;3.72;;;;;;;;;;5481129;26;20020;-68
2024/04/23 14:47:14;;;;;;;6.22;4.28;;;;;;;;;;5463137;26;20056;-68
2024/04/23 14:49:42;;;;;;;6.90;3.95;;;;;;;;;;5480813;26;20246;-69
2024/04/23 14:52:12;;;;;;;6.20;3.95;;;;;;;;;;5475755;26;20067;-67
2024/04/23 14:54:39;;;;;;;6.65;4.28;;;;;;;;;;5479712;26;20002;-68
2024/04/23 14:57:10;;;;;;;6.13;4.20;;;;;;;;;;5467790;26;20003;-68
2024/04/23 14:59:40;;;;;;;6.30;3.85;;;;;;;;;;5479224;26;20463;-67
2024/04/23 15:02:11;;;;;;;5.78;3.95;;;;;;;;;;5483518;26;20016;-67
2024/04/23 15:04:42;;;;;;;8.23;4.40;;;;;;;;;;5483805;26;20002;-67
2024/04/23 15:07:13;;;;;;;6.68;3.90;;;;;;;;;;5465688;26;20002;-67
2024/04/23 15:09:40;;;;;;;5.35;4.20;;;;;;;;;;5481294;26;20443;-67